Hlavní strana
METAR-TAF:

METAR-TAF

Letiště :

Northeast Alabama Regional Airport

Gadsden, Alabama, Spojené státy americké

zeměpisná šířka: 33-58N, zeměpisná délka: 086-05W, výška: 173 m

Aktuální stav počasí

Zpráva byla vytvořena před 13 minutami, v 17:56 UTC
Severoseverozápadní vítr 3 kt
Teplota 8°C
Vlhkost vzduchu 87%
Tlak 1023 hPa
Viditelnost: 16.1 km
Skoro jasno ve výšce 4000 ft
slabý déšť

METAR: KGAD 151756Z AUTO 33003KT 10SM -RA FEW040 08/06 A3020 RMK AO2 SLP232 P0002 60004 T00780056 10078 20061 58010

Čas: 12:09 (18:09 UTC)


TAF: chybějící

Stav a předpovědi počasí z více než 4 000 letišť (zprávy METAR a TAF).

Červené a žluté tečky na mapě představují dostupné meteorologické stanice.

Když kurzor umístíte na tečku, zobrazí se název stanice.

Pak kliknutím zobrazíte stav a předpověď počasí.

Chcete-li změnit mapu, kliknutím na zelené tlačítko se znaménkem +mapu přiblížíte, kliknutím na zelené tlačítko se znaménkem – mapu oddálíte a kliknutím na zelené šipky přejdete na sousední mapy.


METAR-TAF: